Orogrande, New Mexico
Current Conditions -  °F | °C
As of 6:56 PM on Wednesday 17 Dec 2014 (Local Time) from KM63 Reporting Station
Clear Clear  
Wind Chill: 42°   Ceiling: Unl
Heat Index: 48°   Visibility: 10mi
Dew Point: 34°   Wind: 15mph
Humidity: 60%   Direction: 220°SW
Pressure: 30.09"   Gusts: NA
Location:  32.39°N, 106.09°W
Report Text: KM63 180156Z AUTO 22013KT 10SM CLR 09/01 A3009 RMK AO2 SLP171 T00880013
Loading
Personal Weather Stations






























Interactive Weather Map New forecast layout! Learn more

10-Day Weather Forecast

Advertisements
Track Severe Weather on mobile